Time;durP1;ratioP1;P1;durP2;ratioP2;P2;SDS_P1;SDS_P2;PMS_P1;PMS_P2;Temp;Humidity;BMP_temperature;BMP_pressure;BME280_temperature;BME280_humidity;BME280_pressure;Samples;Min_cycle;Max_cycle;Signal;HPM_P1;HPM_P2
2021/01/11 00:00:30;;;;;;;55.60;34.97;;;;;;;2.21;97.26;101975.63;5003706;28;20037;-79
2021/01/11 00:02:55;;;;;;;55.38;33.55;;;;;;;2.23;97.35;101965.22;5029792;28;20048;-77
2021/01/11 00:05:25;;;;;;;58.33;35.97;;;;;;;2.15;97.54;101973.28;5019884;28;20495;-77
2021/01/11 00:07:51;;;;;;;57.80;35.00;;;;;;;2.21;97.83;101965.28;5022208;28;20052;-77
2021/01/11 00:10:16;;;;;;;57.45;35.25;;;;;;;2.20;97.49;101953.22;5029172;28;20132;-79
2021/01/11 00:12:43;;;;;;;60.97;34.88;;;;;;;2.18;97.69;101969.72;5011054;28;20036;-77
2021/01/11 00:15:13;;;;;;;59.25;34.72;;;;;;;2.25;97.80;101968.56;5016425;28;20033;-78
2021/01/11 00:17:39;;;;;;;60.33;36.10;;;;;;;2.28;97.21;101969.28;5008710;28;20120;-77
2021/01/11 00:20:06;;;;;;;59.22;36.38;;;;;;;2.26;97.65;101970.25;5035841;28;20036;-79
2021/01/11 00:22:33;;;;;;;62.65;37.20;;;;;;;2.25;97.71;101972.00;5018078;28;20029;-78
2021/01/11 00:24:59;;;;;;;56.50;34.80;;;;;;;2.26;97.83;101960.75;5017540;28;20641;-80
2021/01/11 00:27:24;;;;;;;56.83;34.92;;;;;;;2.27;97.56;101965.00;4990796;28;20029;-78
2021/01/11 00:29:51;;;;;;;60.55;35.97;;;;;;;2.25;98.06;101966.00;5010805;28;20540;-77
2021/01/11 00:32:16;;;;;;;64.78;37.92;;;;;;;2.24;98.03;101956.53;5000840;28;20047;-76
2021/01/11 00:34:42;;;;;;;63.72;37.03;;;;;;;2.28;97.69;101971.88;5003221;28;20071;-78
2021/01/11 00:37:10;;;;;;;59.58;36.60;;;;;;;2.21;97.90;101961.84;5002639;28;20031;-79
2021/01/11 00:39:35;;;;;;;65.93;38.85;;;;;;;2.30;98.12;101961.47;5028651;28;20037;-76
2021/01/11 00:42:01;;;;;;;67.80;38.28;;;;;;;2.34;97.83;101961.28;5047384;28;20044;-77
2021/01/11 00:44:28;;;;;;;71.82;39.28;;;;;;;2.31;97.93;101965.72;5004500;28;20029;-76
2021/01/11 00:47:01;;;;;;;69.22;39.22;;;;;;;2.33;97.99;101962.16;5018298;28;20043;-77
2021/01/11 00:49:27;;;;;;;72.32;41.03;;;;;;;2.28;98.19;101960.66;5005933;28;20128;-76
2021/01/11 00:51:53;;;;;;;81.25;40.70;;;;;;;2.28;98.01;101958.94;5033955;28;21011;-76
2021/01/11 00:54:19;;;;;;;80.43;42.38;;;;;;;2.30;98.42;101959.72;5024586;28;20407;-76
2021/01/11 00:56:46;;;;;;;82.65;41.78;;;;;;;2.28;98.09;101952.91;4997703;28;20034;-77
2021/01/11 00:59:25;;;;;;;82.68;42.30;;;;;;;2.37;97.62;101962.88;5016904;28;20116;-78
2021/01/11 01:01:57;;;;;;;77.40;42.53;;;;;;;2.34;97.88;101960.44;5018133;28;20033;-76
2021/01/11 01:04:25;;;;;;;88.45;42.92;;;;;;;2.30;98.21;101951.94;5033762;28;20032;-76
2021/01/11 01:06:50;;;;;;;88.68;44.30;;;;;;;2.34;97.88;101957.84;5017210;28;20041;-78
2021/01/11 01:09:16;;;;;;;86.63;44.08;;;;;;;2.28;97.82;101951.19;5035825;28;20546;-78
2021/01/11 01:11:42;;;;;;;84.38;42.90;;;;;;;2.33;98.32;101948.38;5019780;28;20052;-79
2021/01/11 01:14:09;;;;;;;85.30;41.60;;;;;;;2.36;97.94;101948.25;5015208;28;20033;-80
2021/01/11 01:16:35;;;;;;;93.53;44.92;;;;;;;2.34;98.25;101947.50;5032757;28;20072;-79
2021/01/11 01:19:00;;;;;;;79.03;40.35;;;;;;;2.34;98.26;101939.72;5031513;28;20065;-79
2021/01/11 01:21:26;;;;;;;84.35;40.35;;;;;;;2.32;98.30;101951.91;5001467;28;20543;-79
2021/01/11 01:23:52;;;;;;;78.75;39.05;;;;;;;2.35;98.00;101946.56;5019356;28;20053;-77
2021/01/11 01:26:18;;;;;;;79.28;40.67;;;;;;;2.36;98.07;101945.69;5037280;28;20112;-77
2021/01/11 01:28:43;;;;;;;83.68;41.25;;;;;;;2.34;98.24;101945.72;5001439;28;20582;-75
2021/01/11 01:31:09;;;;;;;85.88;41.58;;;;;;;2.28;98.54;101945.13;5015523;28;20427;-77
2021/01/11 01:33:34;;;;;;;83.75;42.08;;;;;;;2.34;98.23;101947.50;5015533;28;20104;-77
2021/01/11 01:36:00;;;;;;;82.80;41.33;;;;;;;2.35;98.38;101941.38;5034230;28;20087;-77
2021/01/11 01:38:25;;;;;;;88.15;41.90;;;;;;;2.30;98.15;101939.00;5036804;28;20037;-76
2021/01/11 01:40:51;;;;;;;85.30;41.53;;;;;;;2.29;98.18;101932.13;5032008;28;20086;-75
2021/01/11 01:43:16;;;;;;;80.70;39.55;;;;;;;2.32;98.52;101946.72;5005292;28;20068;-77
2021/01/11 01:45:42;;;;;;;83.93;41.70;;;;;;;2.34;98.46;101940.56;5018999;28;20112;-76
2021/01/11 01:48:10;;;;;;;87.43;42.13;;;;;;;2.29;98.80;101939.91;5008436;28;20060;-77
2021/01/11 01:50:40;;;;;;;88.53;41.97;;;;;;;2.38;98.45;101943.03;5015421;28;20042;-78
2021/01/11 01:53:06;;;;;;;86.95;41.55;;;;;;;2.31;98.31;101932.06;5016084;28;20041;-77
2021/01/11 01:55:32;;;;;;;87.28;40.65;;;;;;;2.36;98.23;101939.66;5044853;28;20725;-76
2021/01/11 01:58:02;;;;;;;85.53;41.72;;;;;;;2.32;98.19;101936.34;5022202;28;20087;-77
2021/01/11 02:00:28;;;;;;;84.22;42.92;;;;;;;2.32;98.20;101947.53;5023136;28;20406;-76
2021/01/11 02:02:54;;;;;;;87.75;44.22;;;;;;;2.30;98.41;101948.53;5033774;28;20060;-76
2021/01/11 02:05:19;;;;;;;87.25;41.50;;;;;;;2.31;98.62;101939.84;5000948;28;20049;-75
2021/01/11 02:08:01;;;;;;;79.55;40.95;;;;;;;2.34;98.20;101952.66;5024354;28;20037;-77
2021/01/11 02:10:33;;;;;;;87.35;41.83;;;;;;;2.33;98.31;101949.22;5039339;28;20483;-77
2021/01/11 02:13:28;;;;;;;95.25;43.75;;;;;;;2.29;98.33;101934.72;5043676;28;20037;-78
2021/01/11 02:16:12;;;;;;;85.47;42.78;;;;;;;2.28;98.52;101939.94;5016331;28;20064;-79
2021/01/11 02:19:05;;;;;;;80.32;40.53;;;;;;;2.28;98.29;101935.63;5034301;28;20033;-78
2021/01/11 02:22:07;;;;;;;79.32;40.28;;;;;;;2.26;98.39;101940.03;5002688;28;20068;-77
2021/01/11 02:25:00;;;;;;;84.63;41.25;;;;;;;2.25;98.36;101938.34;5032243;28;20045;-77
2021/01/11 02:27:40;;;;;;;79.50;40.05;;;;;;;2.27;98.18;101933.94;5018659;28;20057;-75
2021/01/11 02:30:13;;;;;;;76.75;39.88;;;;;;;2.23;98.38;101927.22;5001314;28;20048;-77
2021/01/11 02:32:48;;;;;;;74.03;40.00;;;;;;;2.22;98.34;101920.34;5017393;28;20175;-77
2021/01/11 02:35:16;;;;;;;84.53;41.63;;;;;;;2.22;98.26;101924.69;5005183;28;20124;-77
2021/01/11 02:37:42;;;;;;;79.50;42.25;;;;;;;2.22;98.52;101932.44;5024580;28;20493;-77
2021/01/11 02:40:09;;;;;;;76.72;41.47;;;;;;;2.25;98.41;101920.22;5042861;28;20048;-76
2021/01/11 02:42:35;;;;;;;80.75;40.90;;;;;;;2.16;98.37;101912.00;5016861;28;20037;-75
2021/01/11 02:45:03;;;;;;;78.45;42.50;;;;;;;2.22;98.21;101922.09;5037277;28;20179;-76
2021/01/11 02:47:57;;;;;;;82.25;43.45;;;;;;;2.19;98.63;101912.72;5018441;28;20056;-79
2021/01/11 02:50:25;;;;;;;82.35;42.38;;;;;;;2.18;98.48;101907.59;5004423;28;20053;-78
2021/01/11 02:53:00;;;;;;;90.32;44.20;;;;;;;2.18;98.70;101911.03;5020746;28;20040;-76
2021/01/11 02:55:38;;;;;;;79.90;43.55;;;;;;;2.12;98.71;101900.94;5009490;28;20113;-76
2021/01/11 02:58:13;;;;;;;88.28;44.75;;;;;;;2.14;98.87;101912.88;5022900;28;20107;-78
2021/01/11 03:00:42;;;;;;;95.05;45.95;;;;;;;2.12;98.73;101903.50;4997693;28;20486;-76
2021/01/11 03:03:09;;;;;;;86.70;44.42;;;;;;;2.20;98.77;101908.38;5026106;28;20507;-77
2021/01/11 03:05:36;;;;;;;90.13;45.20;;;;;;;2.17;98.53;101911.06;5020461;28;20053;-77
2021/01/11 03:08:02;;;;;;;92.03;47.40;;;;;;;2.20;98.80;101913.56;5020555;28;20061;-74
2021/01/11 03:10:28;;;;;;;96.93;46.83;;;;;;;2.14;98.66;101894.78;5019647;28;20036;-77
2021/01/11 03:12:53;;;;;;;90.82;45.75;;;;;;;2.15;98.58;101893.06;5026229;28;20045;-76
2021/01/11 03:15:19;;;;;;;100.65;48.90;;;;;;;2.14;98.48;101894.78;5022665;28;20407;-76
2021/01/11 03:17:45;;;;;;;109.40;49.47;;;;;;;2.11;98.50;101881.13;5003568;28;20073;-75
2021/01/11 03:20:12;;;;;;;105.03;47.95;;;;;;;2.16;98.92;101886.13;5037254;28;20063;-76
2021/01/11 03:22:38;;;;;;;114.32;52.30;;;;;;;2.11;98.98;101891.47;5020210;28;20068;-77
2021/01/11 03:25:04;;;;;;;115.20;51.67;;;;;;;2.04;99.07;101888.31;5020160;28;20487;-78
2021/01/11 03:27:30;;;;;;;110.03;52.15;;;;;;;2.11;99.12;101889.75;5020836;28;20094;-77
2021/01/11 03:29:55;;;;;;;107.80;51.35;;;;;;;2.04;98.88;101875.38;5020635;28;20045;-77
2021/01/11 03:32:21;;;;;;;115.55;52.67;;;;;;;2.14;98.90;101886.16;5019819;28;20568;-77
2021/01/11 03:34:47;;;;;;;107.50;51.38;;;;;;;2.12;98.67;101869.88;5003963;28;20036;-77
2021/01/11 03:37:12;;;;;;;115.40;52.58;;;;;;;2.13;98.79;101872.41;5019540;28;20210;-75
2021/01/11 03:39:38;;;;;;;108.05;51.00;;;;;;;2.12;98.92;101867.28;5018644;28;20111;-74
2021/01/11 03:42:04;;;;;;;106.25;49.90;;;;;;;2.14;99.02;101863.72;5019717;28;20049;-78
2021/01/11 03:44:29;;;;;;;113.47;53.00;;;;;;;2.11;98.82;101861.28;5023029;28;20043;-76
2021/01/11 03:46:55;;;;;;;115.53;51.28;;;;;;;2.14;99.14;101850.75;5029690;28;20654;-75
2021/01/11 03:49:20;;;;;;;109.28;49.60;;;;;;;2.16;99.01;101852.47;5038302;28;20713;-76
2021/01/11 03:51:46;;;;;;;117.63;52.55;;;;;;;2.13;98.91;101851.69;5037107;28;20037;-76
2021/01/11 03:54:11;;;;;;;118.47;52.13;;;;;;;2.14;98.94;101843.00;5035076;28;20056;-79
2021/01/11 03:56:37;;;;;;;109.30;51.42;;;;;;;2.17;98.67;101841.19;4998021;28;20034;-77
2021/01/11 03:59:02;;;;;;;114.22;51.63;;;;;;;2.18;98.67;101845.47;4998176;28;20037;-77
2021/01/11 04:01:28;;;;;;;112.93;50.97;;;;;;;2.19;99.06;101849.75;5033593;28;20030;-77
2021/01/11 04:03:54;;;;;;;110.32;51.28;;;;;;;2.16;98.78;101839.53;5017632;28;20033;-77
2021/01/11 04:06:23;;;;;;;113.82;50.25;;;;;;;2.20;98.71;101836.72;5018217;28;20737;-77
2021/01/11 04:08:49;;;;;;;111.80;49.33;;;;;;;2.16;99.00;101830.00;5018109;28;20033;-77
2021/01/11 04:11:20;;;;;;;111.05;49.75;;;;;;;2.13;98.74;101820.63;5037756;28;20036;-77
2021/01/11 04:13:47;;;;;;;107.25;49.08;;;;;;;2.21;98.34;101820.28;5012615;28;20033;-76
2021/01/11 04:16:13;;;;;;;111.78;49.47;;;;;;;2.23;98.61;101822.81;5014128;28;20467;-75
2021/01/11 04:18:39;;;;;;;104.05;48.83;;;;;;;2.20;98.95;101830.72;5013504;28;20033;-77
2021/01/11 04:21:04;;;;;;;106.85;46.60;;;;;;;2.17;98.96;101815.31;5034040;28;20510;-77
2021/01/11 04:23:30;;;;;;;113.25;48.30;;;;;;;2.16;98.76;101822.22;5017779;28;20128;-76
2021/01/11 04:25:55;;;;;;;112.65;49.03;;;;;;;2.18;98.70;101817.81;5001406;28;20487;-77
2021/01/11 04:28:20;;;;;;;107.90;48.17;;;;;;;2.22;98.70;101819.38;5017216;28;20076;-77
2021/01/11 04:30:46;;;;;;;108.00;48.30;;;;;;;2.20;98.51;101815.19;5017559;28;20034;-77
2021/01/11 04:33:11;;;;;;;108.75;47.25;;;;;;;2.24;98.05;101808.97;5028495;28;20060;-78
2021/01/11 04:35:37;;;;;;;101.30;46.78;;;;;;;2.20;98.17;101803.06;5053965;28;20051;-78
2021/01/11 04:38:02;;;;;;;101.55;44.20;;;;;;;2.21;98.45;101804.75;5036699;28;20072;-77
2021/01/11 04:40:28;;;;;;;99.40;46.10;;;;;;;2.21;98.34;101799.59;5053508;28;20041;-76
2021/01/11 04:42:57;;;;;;;91.20;43.47;;;;;;;2.26;98.33;101796.78;5030752;28;20087;-78
2021/01/11 04:45:24;;;;;;;93.55;43.38;;;;;;;2.24;98.19;101794.28;5017628;28;20108;-79
2021/01/11 04:47:55;;;;;;;93.97;42.95;;;;;;;2.26;97.97;101792.47;5016960;28;20154;-77
2021/01/11 04:50:22;;;;;;;86.88;41.88;;;;;;;2.27;98.28;101794.13;5003095;28;20108;-75
2021/01/11 04:52:48;;;;;;;79.78;41.40;;;;;;;2.24;98.03;101778.75;5039776;28;20033;-76
2021/01/11 04:55:14;;;;;;;90.65;42.35;;;;;;;2.24;97.77;101786.53;5044095;28;20043;-77
2021/01/11 04:57:50;;;;;;;87.88;41.92;;;;;;;2.19;97.81;101772.94;4988539;28;20041;-77
2021/01/11 05:00:20;;;;;;;85.47;41.42;;;;;;;2.20;98.13;101778.94;5022692;28;20041;-77
2021/01/11 05:02:46;;;;;;;82.30;40.70;;;;;;;2.24;97.82;101777.88;4995962;28;20139;-75
2021/01/11 05:05:12;;;;;;;83.05;40.25;;;;;;;2.23;97.95;101774.47;5034009;28;20408;-78
2021/01/11 05:07:38;;;;;;;81.43;41.10;;;;;;;2.21;97.61;101765.09;4999763;28;20041;-75
2021/01/11 05:10:09;;;;;;;87.97;42.28;;;;;;;2.19;97.92;101774.69;5016664;28;20049;-75
2021/01/11 05:12:35;;;;;;;86.88;42.42;;;;;;;2.22;97.90;101774.53;5019937;28;20068;-77
2021/01/11 05:15:17;;;;;;;85.30;41.97;;;;;;;2.18;97.66;101770.41;5032188;28;20060;-77
2021/01/11 05:17:44;;;;;;;90.95;41.20;;;;;;;2.18;97.86;101760.88;5045018;28;20029;-76
2021/01/11 05:20:12;;;;;;;86.65;41.08;;;;;;;2.16;97.39;101748.91;5033077;28;20041;-78
2021/01/11 05:22:38;;;;;;;80.57;40.88;;;;;;;2.22;97.21;101754.66;5015293;28;20040;-78
2021/01/11 05:25:18;;;;;;;85.15;40.22;;;;;;;2.21;97.13;101753.00;5016183;28;20053;-79
2021/01/11 05:27:45;;;;;;;90.25;42.20;;;;;;;2.17;97.50;101743.69;5015142;28;20045;-76
2021/01/11 05:30:31;;;;;;;84.43;41.83;;;;;;;2.20;97.33;101740.94;5015312;28;20391;-77
2021/01/11 05:32:56;;;;;;;89.18;42.95;;;;;;;2.21;97.53;101749.56;5023399;28;20526;-77
2021/01/11 05:35:23;;;;;;;85.22;42.35;;;;;;;2.16;97.39;101743.75;5015348;28;20029;-77
2021/01/11 05:37:51;;;;;;;88.03;42.55;;;;;;;2.20;97.31;101742.69;5015246;28;20040;-77
2021/01/11 05:40:20;;;;;;;88.68;41.95;;;;;;;2.20;97.53;101740.94;5015492;28;20041;-78
2021/01/11 05:42:54;;;;;;;92.10;44.80;;;;;;;2.17;97.63;101738.50;4999625;28;20065;-77
2021/01/11 05:45:33;;;;;;;84.75;41.63;;;;;;;2.17;97.27;101740.22;5023245;28;20044;-78
2021/01/11 05:48:07;;;;;;;88.50;41.95;;;;;;;2.14;97.31;101738.63;5012625;28;20633;-77
2021/01/11 05:50:35;;;;;;;99.50;44.80;;;;;;;2.17;97.53;101730.75;4998620;28;20055;-76
2021/01/11 05:53:01;;;;;;;95.97;45.05;;;;;;;2.16;97.32;101730.81;4962829;28;20435;-77
2021/01/11 05:55:28;;;;;;;93.70;44.00;;;;;;;2.13;97.85;101731.78;4962852;28;20038;-75
2021/01/11 05:58:02;;;;;;;89.07;44.22;;;;;;;2.17;97.37;101738.50;5012788;28;20037;-75
2021/01/11 06:00:31;;;;;;;84.15;43.08;;;;;;;2.19;97.45;101735.84;5028174;28;20036;-77
2021/01/11 06:02:58;;;;;;;90.63;44.28;;;;;;;2.12;97.90;101736.09;5022865;28;20095;-77
2021/01/11 06:05:25;;;;;;;87.22;41.88;;;;;;;2.14;97.34;101726.53;5013871;28;20045;-76
2021/01/11 06:07:51;;;;;;;87.15;42.38;;;;;;;2.14;97.42;101733.44;4997891;28;20053;-76
2021/01/11 06:10:18;;;;;;;83.00;41.25;;;;;;;2.16;97.43;101730.81;5015173;28;20037;-78
2021/01/11 06:12:45;;;;;;;84.20;40.92;;;;;;;2.12;97.31;101719.75;5035251;28;20041;-77
2021/01/11 06:15:15;;;;;;;87.60;40.70;;;;;;;2.14;97.26;101723.94;5013769;28;20038;-77
2021/01/11 06:17:44;;;;;;;79.18;39.72;;;;;;;2.17;96.91;101732.47;5030976;28;20116;-77
2021/01/11 06:20:14;;;;;;;81.07;38.45;;;;;;;2.15;97.80;101727.38;5013817;28;20212;-79
2021/01/11 06:22:45;;;;;;;77.40;38.80;;;;;;;2.13;97.45;101734.38;5021377;28;20025;-76
2021/01/11 06:25:32;;;;;;;75.55;36.35;;;;;;;2.14;97.34;101731.69;4987210;28;20045;-76
2021/01/11 06:28:11;;;;;;;67.22;34.20;;;;;;;2.14;97.55;101723.09;5023351;28;20132;-78
2021/01/11 06:30:42;;;;;;;65.20;33.08;;;;;;;2.10;97.52;101726.75;4999591;28;20488;-78
2021/01/11 06:33:16;;;;;;;56.10;30.70;;;;;;;2.12;96.54;101730.09;5014023;28;20040;-78
2021/01/11 06:35:47;;;;;;;59.60;30.77;;;;;;;2.07;97.10;101712.19;5010594;28;20134;-77
2021/01/11 06:38:26;;;;;;;60.60;31.02;;;;;;;2.02;97.11;101713.31;4994537;28;20026;-79
2021/01/11 06:40:54;;;;;;;58.92;30.58;;;;;;;2.05;97.41;101713.97;4993857;28;20069;-78
2021/01/11 06:43:21;;;;;;;54.67;27.98;;;;;;;2.03;96.92;101704.63;4984670;28;20038;-78
2021/01/11 06:45:48;;;;;;;53.17;27.60;;;;;;;1.95;97.11;101703.19;5013979;28;20483;-79
2021/01/11 06:48:18;;;;;;;49.08;28.45;;;;;;;1.99;96.19;101708.25;5031225;28;20546;-78
2021/01/11 06:50:46;;;;;;;48.03;25.92;;;;;;;1.95;96.50;101705.78;5028952;28;20041;-78
2021/01/11 06:53:12;;;;;;;52.28;27.08;;;;;;;1.95;97.25;101710.97;5013854;28;20045;-78
2021/01/11 06:55:38;;;;;;;46.85;25.42;;;;;;;1.90;96.87;101706.91;5031866;28;20041;-79
2021/01/11 06:58:03;;;;;;;43.97;25.55;;;;;;;1.88;96.62;101700.94;5013600;28;20059;-79
2021/01/11 07:00:30;;;;;;;42.17;24.00;;;;;;;1.90;96.75;101712.06;5013573;28;20476;-79
2021/01/11 07:02:56;;;;;;;43.40;23.88;;;;;;;1.94;96.69;101704.13;5010933;28;20106;-77
2021/01/11 07:05:34;;;;;;;39.20;22.30;;;;;;;1.88;95.91;101703.53;4997667;28;20030;-77
2021/01/11 07:08:02;;;;;;;44.13;23.20;;;;;;;1.85;96.36;101709.69;5023904;28;20045;-77
2021/01/11 07:10:27;;;;;;;40.85;23.20;;;;;;;1.88;95.84;101711.31;5016394;28;20075;-79
2021/01/11 07:13:19;;;;;;;41.33;23.77;;;;;;;1.83;96.02;101703.75;5029621;28;20127;-77
2021/01/11 07:15:51;;;;;;;37.80;23.98;;;;;;;1.83;96.53;101700.31;5004553;28;20132;-76
2021/01/11 07:18:41;;;;;;;41.10;23.08;;;;;;;1.80;97.13;101703.03;5021393;28;20091;-78
2021/01/11 07:21:18;;;;;;;37.92;22.25;;;;;;;1.79;96.18;101704.78;4986175;28;20034;-77
2021/01/11 07:23:44;;;;;;;38.40;23.33;;;;;;;1.75;96.13;101698.06;5013250;28;20068;-78
2021/01/11 07:26:12;;;;;;;35.83;22.33;;;;;;;1.77;96.09;101696.22;4997924;28;20033;-76
2021/01/11 07:28:37;;;;;;;36.85;22.13;;;;;;;1.65;96.13;101696.78;5015175;28;20068;-76
2021/01/11 07:31:03;;;;;;;40.03;23.23;;;;;;;1.68;96.30;101689.72;5024438;28;20041;-77
2021/01/11 07:33:28;;;;;;;38.55;21.70;;;;;;;1.66;95.86;101682.97;5035855;28;20060;-79
2021/01/11 07:35:54;;;;;;;37.30;22.67;;;;;;;1.60;95.87;101681.47;5036622;28;20496;-77
2021/01/11 07:38:19;;;;;;;40.58;22.80;;;;;;;1.62;96.66;101686.56;5018305;28;20075;-75
2021/01/11 07:40:45;;;;;;;37.90;21.10;;;;;;;1.60;95.86;101688.38;5018457;28;20037;-76
2021/01/11 07:43:10;;;;;;;38.88;21.48;;;;;;;1.56;95.88;101685.06;4986731;28;20506;-77
2021/01/11 07:45:36;;;;;;;37.97;21.55;;;;;;;1.60;96.62;101685.78;5019233;28;20037;-77
2021/01/11 07:48:01;;;;;;;39.65;22.20;;;;;;;1.58;96.52;101685.84;5008763;28;20030;-76
2021/01/11 07:50:28;;;;;;;39.30;22.00;;;;;;;1.57;96.47;101689.34;5034658;28;20029;-76
2021/01/11 07:52:57;;;;;;;39.25;21.95;;;;;;;1.57;96.40;101681.59;5019863;28;20037;-75
2021/01/11 07:55:28;;;;;;;37.65;23.05;;;;;;;1.51;96.46;101672.34;5022097;28;20026;-77
2021/01/11 07:58:00;;;;;;;40.40;22.55;;;;;;;1.52;96.30;101676.59;5019454;28;20503;-77
2021/01/11 08:00:26;;;;;;;37.00;21.83;;;;;;;1.50;96.32;101675.81;5019158;28;20048;-77
2021/01/11 08:02:52;;;;;;;37.70;21.45;;;;;;;1.51;95.84;101667.19;5018244;28;20404;-77
2021/01/11 08:05:23;;;;;;;42.47;22.63;;;;;;;1.49;96.14;101666.41;5019406;28;20394;-75
2021/01/11 08:07:54;;;;;;;37.78;22.83;;;;;;;1.48;96.23;101669.06;5034993;28;20048;-77
2021/01/11 08:10:23;;;;;;;39.88;22.23;;;;;;;1.49;96.50;101666.41;5018547;28;20079;-77
2021/01/11 08:12:49;;;;;;;37.78;23.50;;;;;;;1.49;96.50;101663.00;5023578;28;20061;-76
2021/01/11 08:15:14;;;;;;;41.45;23.45;;;;;;;1.47;96.85;101660.47;5018551;28;20112;-76
2021/01/11 08:17:41;;;;;;;41.45;23.67;;;;;;;1.47;96.39;101657.88;5033952;28;20053;-76
2021/01/11 08:20:07;;;;;;;38.38;22.67;;;;;;;1.45;96.64;101644.19;5033560;28;20021;-78
2021/01/11 08:22:33;;;;;;;38.28;23.08;;;;;;;1.43;96.37;101648.56;5022651;28;20033;-76
2021/01/11 08:24:59;;;;;;;45.80;25.17;;;;;;;1.40;96.64;101643.53;5036478;28;20540;-76
2021/01/11 08:27:39;;;;;;;46.00;25.40;;;;;;;1.48;96.77;101653.53;5046497;28;20064;-78
2021/01/11 08:30:08;;;;;;;40.13;22.95;;;;;;;1.43;96.08;101647.72;5022930;28;20449;-77
2021/01/11 08:32:34;;;;;;;41.13;25.17;;;;;;;1.41;96.55;101650.34;5010136;28;20034;-76
2021/01/11 08:35:26;;;;;;;41.28;24.33;;;;;;;1.48;96.57;101658.72;5015098;28;20126;-77
2021/01/11 08:37:59;;;;;;;40.47;23.70;;;;;;;1.45;96.71;101653.66;4977645;28;20081;-77
2021/01/11 08:40:28;;;;;;;40.17;25.25;;;;;;;1.44;96.54;101654.56;4993135;28;20477;-78
2021/01/11 08:42:54;;;;;;;41.05;23.05;;;;;;;1.46;96.29;101661.34;5015921;28;20585;-77
2021/01/11 08:45:28;;;;;;;38.78;24.25;;;;;;;1.48;96.19;101656.13;5016570;28;20068;-79
2021/01/11 08:48:12;;;;;;;43.63;25.25;;;;;;;1.49;96.58;101656.06;5015789;28;20132;-78
2021/01/11 08:50:37;;;;;;;;;;;;;;;1.50;96.53;101655.13;4994712;28;20037;-79
2021/01/11 08:53:22;;;;;;;43.75;25.08;;;;;;;1.48;96.64;101654.38;5039923;28;20397;-77
2021/01/11 08:56:10;;;;;;;46.08;26.10;;;;;;;1.47;96.15;101657.00;5020553;28;20452;-78
2021/01/11 08:58:47;;;;;;;42.55;25.48;;;;;;;1.45;96.37;101657.09;5018121;28;20022;-77
2021/01/11 09:01:18;;;;;;;44.90;26.23;;;;;;;1.46;96.83;101658.75;5034378;28;20045;-75
2021/01/11 09:03:47;;;;;;;47.78;27.55;;;;;;;1.50;96.43;101656.91;5016561;28;20029;-75
2021/01/11 09:06:39;;;;;;;48.50;27.48;;;;;;;1.52;96.60;101655.09;5015464;28;20408;-75
2021/01/11 09:09:15;;;;;;;49.88;27.92;;;;;;;1.48;96.40;101645.78;5049407;28;20061;-77
2021/01/11 09:11:43;;;;;;;55.38;30.05;;;;;;;1.49;96.25;101650.91;5004840;28;20091;-76
2021/01/11 09:14:12;;;;;;;56.20;29.33;;;;;;;1.55;96.75;101652.38;5023582;28;20044;-77
2021/01/11 09:16:39;;;;;;;61.10;31.83;;;;;;;1.53;96.79;101644.69;4990796;28;20061;-79
2021/01/11 09:19:16;;;;;;;62.95;32.05;;;;;;;1.53;96.77;101638.69;5015489;28;20087;-80
2021/01/11 09:21:43;;;;;;;64.50;33.65;;;;;;;1.59;96.96;101658.25;5009754;28;20041;-78
2021/01/11 09:24:10;;;;;;;67.03;33.72;;;;;;;1.58;96.40;101653.97;5027663;28;20110;-79
2021/01/11 09:26:41;;;;;;;70.88;33.67;;;;;;;1.54;97.07;101646.38;5016558;28;20055;-79
2021/01/11 09:29:08;;;;;;;77.65;35.45;;;;;;;1.57;97.13;101647.97;5042020;28;20041;-78
2021/01/11 09:31:33;;;;;;;79.85;37.05;;;;;;;1.60;97.40;101649.56;5029981;28;20108;-79
2021/01/11 09:33:59;;;;;;;77.82;37.88;;;;;;;1.58;96.99;101646.22;5035514;28;20128;-78
2021/01/11 09:36:33;;;;;;;81.95;37.30;;;;;;;1.58;97.40;101646.22;5036513;28;20029;-78
2021/01/11 09:38:58;;;;;;;79.00;37.65;;;;;;;1.59;97.03;101641.00;5019420;28;20080;-78
2021/01/11 09:41:24;;;;;;;77.20;36.65;;;;;;;1.58;97.44;101652.22;5036517;28;20072;-77
2021/01/11 09:43:49;;;;;;;79.40;36.78;;;;;;;1.63;97.52;101652.03;5035607;28;20129;-77
2021/01/11 09:46:15;;;;;;;83.60;37.63;;;;;;;1.61;96.75;101649.50;5024123;28;20476;-77
2021/01/11 09:48:40;;;;;;;82.18;34.88;;;;;;;1.62;97.24;101648.63;5002228;28;20049;-78
2021/01/11 09:51:07;;;;;;;85.10;37.65;;;;;;;1.61;97.07;101643.50;5025252;28;20138;-78
2021/01/11 09:53:32;;;;;;;76.32;37.42;;;;;;;1.66;97.02;101649.34;5033710;28;20104;-78
2021/01/11 09:55:58;;;;;;;79.78;36.17;;;;;;;1.64;97.03;101646.81;5016418;28;20083;-80
2021/01/11 09:58:23;;;;;;;77.55;36.35;;;;;;;1.62;96.94;101648.63;5023884;28;20075;-76
2021/01/11 10:00:49;;;;;;;73.22;32.85;;;;;;;1.65;96.89;101650.22;5003804;28;20075;-78
2021/01/11 10:03:14;;;;;;;78.85;34.78;;;;;;;1.64;97.36;101644.22;5015683;28;20155;-76
2021/01/11 10:05:40;;;;;;;78.38;35.25;;;;;;;1.67;97.13;101641.47;4999721;28;20045;-78
2021/01/11 10:08:05;;;;;;;74.95;35.50;;;;;;;1.67;96.84;101644.06;5016290;28;20040;-78
2021/01/11 10:10:31;;;;;;;67.35;33.47;;;;;;;1.70;96.86;101643.94;5015387;28;20037;-77
2021/01/11 10:12:56;;;;;;;70.75;34.28;;;;;;;1.68;96.50;101645.75;5023625;28;20388;-76
2021/01/11 10:15:22;;;;;;;77.50;34.97;;;;;;;1.62;96.67;101625.34;5046767;28;20040;-77
2021/01/11 10:17:47;;;;;;;77.90;34.25;;;;;;;1.68;96.71;101634.59;5043821;28;20042;-78
2021/01/11 10:20:13;;;;;;;72.18;33.38;;;;;;;1.66;96.28;101624.31;5015914;28;20252;-78
2021/01/11 10:22:39;;;;;;;74.00;34.10;;;;;;;1.66;96.60;101618.28;5018130;28;20044;-79
2021/01/11 10:25:07;;;;;;;76.13;34.13;;;;;;;1.65;96.42;101622.59;5046617;28;20030;-79
2021/01/11 10:27:32;;;;;;;66.90;32.10;;;;;;;1.67;95.90;101617.38;5032178;28;20077;-76
2021/01/11 10:29:58;;;;;;;68.05;32.03;;;;;;;1.66;95.92;101618.28;5020565;28;20065;-76
2021/01/11 10:32:25;;;;;;;74.72;32.47;;;;;;;1.66;96.00;101602.78;5040128;28;20269;-79
2021/01/11 10:34:50;;;;;;;75.95;32.78;;;;;;;1.63;96.42;101603.72;5016101;28;20491;-79
2021/01/11 10:37:16;;;;;;;72.55;32.08;;;;;;;1.60;95.91;101593.53;5007705;28;20040;-77
2021/01/11 10:39:42;;;;;;;75.28;31.30;;;;;;;1.61;96.17;101589.19;5033197;28;20034;-77
2021/01/11 10:42:07;;;;;;;66.35;31.33;;;;;;;1.60;95.88;101580.63;5000066;28;20048;-77
2021/01/11 10:44:34;;;;;;;64.50;30.60;;;;;;;1.64;96.18;101591.63;5016185;28;20041;-78
2021/01/11 10:47:00;;;;;;;66.97;31.23;;;;;;;1.65;95.94;101590.75;5014035;28;20041;-78
2021/01/11 10:49:27;;;;;;;71.60;31.90;;;;;;;1.65;96.41;101577.81;4987031;28;20037;-77
2021/01/11 10:51:55;;;;;;;74.25;32.67;;;;;;;1.67;96.46;101583.75;5006050;28;20049;-76
2021/01/11 10:54:20;;;;;;;73.22;31.73;;;;;;;1.64;96.09;101563.19;5015892;28;20199;-78
2021/01/11 10:56:49;;;;;;;71.30;32.25;;;;;;;1.66;96.22;101571.75;5032876;28;20099;-77
2021/01/11 10:59:15;;;;;;;68.15;31.73;;;;;;;1.52;96.21;101559.41;5036662;28;20053;-75
2021/01/11 11:01:41;;;;;;;70.43;32.00;;;;;;;1.62;96.91;101570.19;5014784;28;20120;-79
2021/01/11 11:04:06;;;;;;;69.35;30.80;;;;;;;1.60;96.02;101564.25;5039027;28;20519;-77
2021/01/11 11:06:32;;;;;;;64.65;28.92;;;;;;;1.59;96.07;101549.66;5028590;28;20113;-77
2021/01/11 11:08:57;;;;;;;65.10;30.33;;;;;;;1.58;96.57;101545.38;5024480;28;20038;-76
2021/01/11 11:11:23;;;;;;;66.53;31.60;;;;;;;1.54;96.01;101537.75;5002381;28;20033;-77
2021/01/11 11:13:48;;;;;;;67.07;30.77;;;;;;;1.56;96.14;101537.66;5035347;28;20091;-76
2021/01/11 11:16:14;;;;;;;57.08;29.20;;;;;;;1.62;96.50;101536.56;5002516;28;20037;-76
2021/01/11 11:18:41;;;;;;;59.58;27.92;;;;;;;1.65;96.45;101533.84;5037359;28;20057;-77
2021/01/11 11:21:11;;;;;;;51.17;26.65;;;;;;;1.62;95.99;101518.44;5002239;28;20048;-77
2021/01/11 11:23:37;;;;;;;51.60;25.13;;;;;;;1.66;95.94;101523.44;5003352;28;20045;-76